sensor_id;sensor_type;location;lat;lon;timestamp;P1;durP1;ratioP1;P2;durP2;ratioP2
10550;SDS011;5324;50.684;3.862;2023-04-01T00:00:46;4.43;;;1.77;;
10550;SDS011;5324;50.684;3.862;2023-04-01T00:03:12;3.57;;;1.87;;
10550;SDS011;5324;50.684;3.862;2023-04-01T00:05:38;3.57;;;1.77;;
10550;SDS011;5324;50.684;3.862;2023-04-01T00:08:05;3.73;;;1.67;;
10550;SDS011;5324;50.684;3.862;2023-04-01T00:10:31;6.20;;;1.90;;
10550;SDS011;5324;50.684;3.862;2023-04-01T00:12:57;4.17;;;1.87;;
10550;SDS011;5324;50.684;3.862;2023-04-01T00:15:23;4.00;;;1.73;;
10550;SDS011;5324;50.684;3.862;2023-04-01T00:17:48;3.63;;;2.07;;
10550;SDS011;5324;50.684;3.862;2023-04-01T00:20:15;3.43;;;1.63;;
10550;SDS011;5324;50.684;3.862;2023-04-01T00:22:41;5.63;;;1.90;;
10550;SDS011;5324;50.684;3.862;2023-04-01T00:25:07;4.20;;;1.83;;
10550;SDS011;5324;50.684;3.862;2023-04-01T00:27:33;2.97;;;2.10;;
10550;SDS011;5324;50.684;3.862;2023-04-01T00:29:59;4.03;;;1.80;;
10550;SDS011;5324;50.684;3.862;2023-04-01T00:32:26;4.57;;;1.93;;
10550;SDS011;5324;50.684;3.862;2023-04-01T00:34:52;3.73;;;1.87;;
10550;SDS011;5324;50.684;3.862;2023-04-01T00:37:18;2.70;;;1.50;;
10550;SDS011;5324;50.684;3.862;2023-04-01T00:39:47;2.40;;;1.83;;
10550;SDS011;5324;50.684;3.862;2023-04-01T00:42:13;5.13;;;1.93;;
10550;SDS011;5324;50.684;3.862;2023-04-01T00:44:39;4.23;;;1.70;;
10550;SDS011;5324;50.684;3.862;2023-04-01T00:47:05;4.50;;;1.47;;
10550;SDS011;5324;50.684;3.862;2023-04-01T00:49:32;3.63;;;1.50;;
10550;SDS011;5324;50.684;3.862;2023-04-01T00:52:00;2.47;;;1.40;;
10550;SDS011;5324;50.684;3.862;2023-04-01T00:54:27;3.20;;;1.37;;
10550;SDS011;5324;50.684;3.862;2023-04-01T00:57:18;3.23;;;1.23;;
10550;SDS011;5324;50.684;3.862;2023-04-01T00:59:43;2.33;;;1.27;;
10550;SDS011;5324;50.684;3.862;2023-04-01T01:02:10;1.57;;;1.10;;
10550;SDS011;5324;50.684;3.862;2023-04-01T01:04:37;1.50;;;1.10;;
10550;SDS011;5324;50.684;3.862;2023-04-01T01:07:10;1.23;;;0.90;;
10550;SDS011;5324;50.684;3.862;2023-04-01T01:12:10;1.40;;;1.13;;
10550;SDS011;5324;50.684;3.862;2023-04-01T01:14:53;1.37;;;1.13;;
10550;SDS011;5324;50.684;3.862;2023-04-01T01:23:00;1.17;;;0.90;;
10550;SDS011;5324;50.684;3.862;2023-04-01T01:25:52;1.80;;;1.30;;
10550;SDS011;5324;50.684;3.862;2023-04-01T01:33:37;1.90;;;1.50;;
10550;SDS011;5324;50.684;3.862;2023-04-01T01:36:06;1.30;;;1.10;;
10550;SDS011;5324;50.684;3.862;2023-04-01T01:38:34;3.00;;;2.00;;
10550;SDS011;5324;50.684;3.862;2023-04-01T01:41:01;3.03;;;1.70;;
10550;SDS011;5324;50.684;3.862;2023-04-01T01:43:30;3.77;;;1.77;;
10550;SDS011;5324;50.684;3.862;2023-04-01T01:45:57;2.60;;;1.70;;
10550;SDS011;5324;50.684;3.862;2023-04-01T01:48:26;5.90;;;2.27;;
10550;SDS011;5324;50.684;3.862;2023-04-01T01:50:53;3.70;;;1.97;;
10550;SDS011;5324;50.684;3.862;2023-04-01T01:53:19;4.57;;;1.93;;
10550;SDS011;5324;50.684;3.862;2023-04-01T01:55:46;5.03;;;2.10;;
10550;SDS011;5324;50.684;3.862;2023-04-01T01:58:27;3.30;;;1.97;;
10550;SDS011;5324;50.684;3.862;2023-04-01T02:00:55;3.40;;;2.00;;
10550;SDS011;5324;50.684;3.862;2023-04-01T02:03:23;3.10;;;2.20;;
10550;SDS011;5324;50.684;3.862;2023-04-01T02:05:50;2.93;;;1.77;;
10550;SDS011;5324;50.684;3.862;2023-04-01T02:08:18;3.47;;;2.40;;
10550;SDS011;5324;50.684;3.862;2023-04-01T02:10:51;3.63;;;1.87;;
10550;SDS011;5324;50.684;3.862;2023-04-01T02:13:31;3.60;;;1.87;;
10550;SDS011;5324;50.684;3.862;2023-04-01T02:16:01;5.17;;;2.13;;
10550;SDS011;5324;50.684;3.862;2023-04-01T02:18:29;5.77;;;2.40;;
10550;SDS011;5324;50.684;3.862;2023-04-01T02:20:56;3.60;;;2.20;;
10550;SDS011;5324;50.684;3.862;2023-04-01T02:23:23;6.53;;;2.63;;
10550;SDS011;5324;50.684;3.862;2023-04-01T02:25:49;4.03;;;2.10;;
10550;SDS011;5324;50.684;3.862;2023-04-01T02:28:15;4.63;;;2.63;;
10550;SDS011;5324;50.684;3.862;2023-04-01T02:30:45;4.47;;;2.70;;
10550;SDS011;5324;50.684;3.862;2023-04-01T02:33:12;7.67;;;2.87;;
10550;SDS011;5324;50.684;3.862;2023-04-01T02:35:38;6.40;;;2.50;;
10550;SDS011;5324;50.684;3.862;2023-04-01T02:38:04;5.67;;;2.90;;
10550;SDS011;5324;50.684;3.862;2023-04-01T02:40:40;6.60;;;2.90;;
10550;SDS011;5324;50.684;3.862;2023-04-01T02:43:06;4.80;;;3.20;;
10550;SDS011;5324;50.684;3.862;2023-04-01T02:45:32;6.93;;;3.63;;
10550;SDS011;5324;50.684;3.862;2023-04-01T02:47:58;5.63;;;3.53;;
10550;SDS011;5324;50.684;3.862;2023-04-01T02:50:24;4.80;;;3.30;;
10550;SDS011;5324;50.684;3.862;2023-04-01T02:52:50;5.07;;;3.57;;
10550;SDS011;5324;50.684;3.862;2023-04-01T02:55:16;5.53;;;3.57;;
10550;SDS011;5324;50.684;3.862;2023-04-01T02:57:42;4.27;;;3.10;;
10550;SDS011;5324;50.684;3.862;2023-04-01T03:00:08;7.13;;;4.13;;
10550;SDS011;5324;50.684;3.862;2023-04-01T03:02:36;4.67;;;3.87;;
10550;SDS011;5324;50.684;3.862;2023-04-01T03:05:02;6.63;;;4.17;;
10550;SDS011;5324;50.684;3.862;2023-04-01T03:07:28;4.47;;;3.90;;
10550;SDS011;5324;50.684;3.862;2023-04-01T03:09:54;6.23;;;3.87;;
10550;SDS011;5324;50.684;3.862;2023-04-01T03:12:20;5.17;;;3.30;;
10550;SDS011;5324;50.684;3.862;2023-04-01T03:14:46;5.87;;;3.97;;
10550;SDS011;5324;50.684;3.862;2023-04-01T03:17:12;9.37;;;3.80;;
10550;SDS011;5324;50.684;3.862;2023-04-01T03:19:38;5.40;;;4.10;;
10550;SDS011;5324;50.684;3.862;2023-04-01T03:22:04;6.93;;;4.20;;
10550;SDS011;5324;50.684;3.862;2023-04-01T03:24:30;6.80;;;4.17;;
10550;SDS011;5324;50.684;3.862;2023-04-01T03:26:56;5.50;;;4.37;;
10550;SDS011;5324;50.684;3.862;2023-04-01T03:29:22;6.23;;;4.30;;
10550;SDS011;5324;50.684;3.862;2023-04-01T03:31:48;7.67;;;4.43;;
10550;SDS011;5324;50.684;3.862;2023-04-01T03:34:14;8.13;;;4.63;;
10550;SDS011;5324;50.684;3.862;2023-04-01T03:36:40;7.13;;;4.47;;
10550;SDS011;5324;50.684;3.862;2023-04-01T03:39:06;6.37;;;4.20;;
10550;SDS011;5324;50.684;3.862;2023-04-01T03:41:35;7.63;;;4.47;;
10550;SDS011;5324;50.684;3.862;2023-04-01T03:44:02;5.63;;;4.10;;
10550;SDS011;5324;50.684;3.862;2023-04-01T03:46:28;6.07;;;4.03;;
10550;SDS011;5324;50.684;3.862;2023-04-01T03:48:54;5.37;;;3.80;;
10550;SDS011;5324;50.684;3.862;2023-04-01T03:51:20;5.50;;;3.87;;
10550;SDS011;5324;50.684;3.862;2023-04-01T03:53:46;7.40;;;4.00;;
10550;SDS011;5324;50.684;3.862;2023-04-01T03:56:12;5.23;;;3.67;;
10550;SDS011;5324;50.684;3.862;2023-04-01T03:58:38;6.37;;;3.30;;
10550;SDS011;5324;50.684;3.862;2023-04-01T04:01:17;4.30;;;2.90;;
10550;SDS011;5324;50.684;3.862;2023-04-01T04:03:43;7.23;;;3.40;;
10550;SDS011;5324;50.684;3.862;2023-04-01T04:06:13;5.73;;;3.33;;
10550;SDS011;5324;50.684;3.862;2023-04-01T04:08:39;3.03;;;2.73;;
10550;SDS011;5324;50.684;3.862;2023-04-01T04:11:05;5.30;;;3.13;;
10550;SDS011;5324;50.684;3.862;2023-04-01T04:13:31;4.87;;;3.40;;
10550;SDS011;5324;50.684;3.862;2023-04-01T04:15:57;3.87;;;3.37;;
10550;SDS011;5324;50.684;3.862;2023-04-01T04:18:24;4.33;;;3.33;;
10550;SDS011;5324;50.684;3.862;2023-04-01T04:20:50;4.90;;;3.23;;
10550;SDS011;5324;50.684;3.862;2023-04-01T04:23:16;7.57;;;4.37;;
10550;SDS011;5324;50.684;3.862;2023-04-01T04:25:56;4.47;;;3.83;;
10550;SDS011;5324;50.684;3.862;2023-04-01T04:28:22;4.20;;;3.80;;
10550;SDS011;5324;50.684;3.862;2023-04-01T04:30:48;4.43;;;4.00;;
10550;SDS011;5324;50.684;3.862;2023-04-01T04:33:14;5.30;;;3.60;;
10550;SDS011;5324;50.684;3.862;2023-04-01T04:35:41;6.13;;;4.20;;
10550;SDS011;5324;50.684;3.862;2023-04-01T04:38:07;4.83;;;4.33;;
10550;SDS011;5324;50.684;3.862;2023-04-01T04:40:33;4.27;;;3.80;;
10550;SDS011;5324;50.684;3.862;2023-04-01T04:42:59;4.00;;;3.60;;
10550;SDS011;5324;50.684;3.862;2023-04-01T04:45:25;3.73;;;3.37;;
10550;SDS011;5324;50.684;3.862;2023-04-01T04:47:51;5.67;;;3.70;;
10550;SDS011;5324;50.684;3.862;2023-04-01T04:50:17;4.40;;;4.00;;
10550;SDS011;5324;50.684;3.862;2023-04-01T04:52:43;3.90;;;3.50;;
10550;SDS011;5324;50.684;3.862;2023-04-01T04:55:09;3.37;;;3.07;;
10550;SDS011;5324;50.684;3.862;2023-04-01T04:57:35;4.40;;;4.00;;
10550;SDS011;5324;50.684;3.862;2023-04-01T05:00:01;3.30;;;3.00;;
10550;SDS011;5324;50.684;3.862;2023-04-01T05:02:27;3.20;;;2.80;;
10550;SDS011;5324;50.684;3.862;2023-04-01T05:04:53;3.60;;;3.17;;
10550;SDS011;5324;50.684;3.862;2023-04-01T05:07:19;4.30;;;3.07;;
10550;SDS011;5324;50.684;3.862;2023-04-01T05:09:45;4.07;;;3.27;;
10550;SDS011;5324;50.684;3.862;2023-04-01T05:12:11;4.30;;;3.17;;
10550;SDS011;5324;50.684;3.862;2023-04-01T05:14:38;4.13;;;3.23;;
10550;SDS011;5324;50.684;3.862;2023-04-01T05:17:04;3.97;;;3.57;;
10550;SDS011;5324;50.684;3.862;2023-04-01T05:19:30;4.40;;;3.70;;
10550;SDS011;5324;50.684;3.862;2023-04-01T05:21:56;3.90;;;3.40;;
10550;SDS011;5324;50.684;3.862;2023-04-01T05:24:22;5.27;;;3.70;;
10550;SDS011;5324;50.684;3.862;2023-04-01T05:26:48;4.63;;;3.93;;
10550;SDS011;5324;50.684;3.862;2023-04-01T05:29:14;5.53;;;4.47;;
10550;SDS011;5324;50.684;3.862;2023-04-01T05:31:40;4.10;;;3.40;;
10550;SDS011;5324;50.684;3.862;2023-04-01T05:34:06;6.80;;;4.17;;
10550;SDS011;5324;50.684;3.862;2023-04-01T05:36:32;5.53;;;4.63;;
10550;SDS011;5324;50.684;3.862;2023-04-01T05:38:58;5.53;;;4.50;;
10550;SDS011;5324;50.684;3.862;2023-04-01T05:41:24;6.67;;;4.93;;
10550;SDS011;5324;50.684;3.862;2023-04-01T05:43:50;6.27;;;4.57;;
10550;SDS011;5324;50.684;3.862;2023-04-01T05:46:16;5.40;;;4.90;;
10550;SDS011;5324;50.684;3.862;2023-04-01T05:48:42;6.13;;;4.53;;
10550;SDS011;5324;50.684;3.862;2023-04-01T05:51:12;6.03;;;4.57;;
10550;SDS011;5324;50.684;3.862;2023-04-01T05:53:41;7.60;;;4.87;;
10550;SDS011;5324;50.684;3.862;2023-04-01T05:56:07;6.23;;;4.70;;
10550;SDS011;5324;50.684;3.862;2023-04-01T05:58:34;7.27;;;4.60;;
10550;SDS011;5324;50.684;3.862;2023-04-01T06:01:01;5.57;;;4.33;;
10550;SDS011;5324;50.684;3.862;2023-04-01T06:03:27;6.23;;;4.27;;
10550;SDS011;5324;50.684;3.862;2023-04-01T06:05:54;6.23;;;3.77;;
10550;SDS011;5324;50.684;3.862;2023-04-01T06:08:20;3.73;;;3.37;;
10550;SDS011;5324;50.684;3.862;2023-04-01T06:16:17;4.60;;;3.80;;
10550;SDS011;5324;50.684;3.862;2023-04-01T06:23:53;5.37;;;3.60;;
10550;SDS011;5324;50.684;3.862;2023-04-01T06:31:33;4.70;;;3.63;;
10550;SDS011;5324;50.684;3.862;2023-04-01T06:34:06;4.47;;;3.77;;
10550;SDS011;5324;50.684;3.862;2023-04-01T06:41:59;4.10;;;3.70;;
10550;SDS011;5324;50.684;3.862;2023-04-01T06:46:57;6.07;;;4.77;;
10550;SDS011;5324;50.684;3.862;2023-04-01T06:54:40;5.63;;;4.30;;
10550;SDS011;5324;50.684;3.862;2023-04-01T06:57:29;6.83;;;5.47;;
10550;SDS011;5324;50.684;3.862;2023-04-01T06:59:55;6.10;;;4.67;;
10550;SDS011;5324;50.684;3.862;2023-04-01T07:02:39;4.53;;;4.07;;
10550;SDS011;5324;50.684;3.862;2023-04-01T07:05:07;4.90;;;4.20;;
10550;SDS011;5324;50.684;3.862;2023-04-01T07:07:44;4.10;;;3.70;;
10550;SDS011;5324;50.684;3.862;2023-04-01T07:10:12;4.43;;;3.67;;
10550;SDS011;5324;50.684;3.862;2023-04-01T07:12:44;4.43;;;3.80;;
10550;SDS011;5324;50.684;3.862;2023-04-01T07:15:19;4.10;;;3.70;;
10550;SDS011;5324;50.684;3.862;2023-04-01T07:17:47;4.00;;;3.60;;
10550;SDS011;5324;50.684;3.862;2023-04-01T07:20:22;4.47;;;3.13;;
10550;SDS011;5324;50.684;3.862;2023-04-01T07:22:53;3.80;;;3.40;;
10550;SDS011;5324;50.684;3.862;2023-04-01T07:25:20;4.10;;;3.70;;
10550;SDS011;5324;50.684;3.862;2023-04-01T07:27:50;4.50;;;4.10;;
10550;SDS011;5324;50.684;3.862;2023-04-01T07:30:19;4.23;;;3.83;;
10550;SDS011;5324;50.684;3.862;2023-04-01T07:35:16;5.30;;;4.40;;
10550;SDS011;5324;50.684;3.862;2023-04-01T07:37:55;4.53;;;3.97;;
10550;SDS011;5324;50.684;3.862;2023-04-01T07:45:37;3.60;;;3.10;;
10550;SDS011;5324;50.684;3.862;2023-04-01T07:48:17;3.47;;;3.17;;
10550;SDS011;5324;50.684;3.862;2023-04-01T07:50:50;2.83;;;2.63;;
10550;SDS011;5324;50.684;3.862;2023-04-01T07:53:31;2.70;;;2.47;;
10550;SDS011;5324;50.684;3.862;2023-04-01T07:58:33;3.13;;;2.83;;
10550;SDS011;5324;50.684;3.862;2023-04-01T08:01:19;2.97;;;2.30;;
10550;SDS011;5324;50.684;3.862;2023-04-01T08:16:48;2.10;;;1.90;;
10550;SDS011;5324;50.684;3.862;2023-04-01T08:21:52;1.97;;;1.77;;
10550;SDS011;5324;50.684;3.862;2023-04-01T08:26:49;2.30;;;1.50;;
10550;SDS011;5324;50.684;3.862;2023-04-01T08:34:14;1.10;;;1.10;;
10550;SDS011;5324;50.684;3.862;2023-04-01T08:36:43;1.67;;;1.00;;
10550;SDS011;5324;50.684;3.862;2023-04-01T08:39:16;1.53;;;1.33;;
10550;SDS011;5324;50.684;3.862;2023-04-01T08:49:44;1.30;;;1.30;;
10550;SDS011;5324;50.684;3.862;2023-04-01T09:10:34;1.53;;;1.43;;
10550;SDS011;5324;50.684;3.862;2023-04-01T09:13:11;2.20;;;2.00;;
10550;SDS011;5324;50.684;3.862;2023-04-01T09:15:48;1.70;;;1.60;;
10550;SDS011;5324;50.684;3.862;2023-04-01T09:20:46;1.83;;;1.50;;
10550;SDS011;5324;50.684;3.862;2023-04-01T09:26:12;1.80;;;1.70;;
10550;SDS011;5324;50.684;3.862;2023-04-01T09:28:59;1.40;;;1.30;;
10550;SDS011;5324;50.684;3.862;2023-04-01T09:31:32;2.13;;;1.50;;
10550;SDS011;5324;50.684;3.862;2023-04-01T09:36:44;1.57;;;1.47;;
10550;SDS011;5324;50.684;3.862;2023-04-01T09:41:40;2.00;;;1.77;;
10550;SDS011;5324;50.684;3.862;2023-04-01T09:54:45;2.60;;;1.70;;
10550;SDS011;5324;50.684;3.862;2023-04-01T09:57:30;2.40;;;2.17;;
10550;SDS011;5324;50.684;3.862;2023-04-01T10:28:38;1.90;;;1.80;;
10550;SDS011;5324;50.684;3.862;2023-04-01T10:31:14;2.20;;;2.10;;
10550;SDS011;5324;50.684;3.862;2023-04-01T10:52:09;4.27;;;2.50;;
10550;SDS011;5324;50.684;3.862;2023-04-01T10:54:56;1.93;;;1.70;;
10550;SDS011;5324;50.684;3.862;2023-04-01T11:05:31;2.43;;;1.23;;
10550;SDS011;5324;50.684;3.862;2023-04-01T11:31:03;1.77;;;1.67;;
10550;SDS011;5324;50.684;3.862;2023-04-01T11:33:38;1.10;;;1.10;;
10550;SDS011;5324;50.684;3.862;2023-04-01T11:44:03;1.33;;;1.23;;
10550;SDS011;5324;50.684;3.862;2023-04-01T11:49:29;1.30;;;1.20;;
10550;SDS011;5324;50.684;3.862;2023-04-01T12:10:26;2.30;;;2.13;;
10550;SDS011;5324;50.684;3.862;2023-04-01T12:21:25;2.90;;;2.70;;
10550;SDS011;5324;50.684;3.862;2023-04-01T12:26:23;3.50;;;2.97;;
10550;SDS011;5324;50.684;3.862;2023-04-01T12:29:03;2.90;;;2.70;;
10550;SDS011;5324;50.684;3.862;2023-04-01T12:31:38;2.53;;;2.33;;
10550;SDS011;5324;50.684;3.862;2023-04-01T12:49:27;2.20;;;2.10;;
10550;SDS011;5324;50.684;3.862;2023-04-01T12:57:13;1.93;;;1.80;;
10550;SDS011;5324;50.684;3.862;2023-04-01T12:59:55;2.10;;;1.90;;
10550;SDS011;5324;50.684;3.862;2023-04-01T13:02:47;2.43;;;2.23;;
10550;SDS011;5324;50.684;3.862;2023-04-01T13:08:10;2.10;;;2.00;;
10550;SDS011;5324;50.684;3.862;2023-04-01T13:15:37;2.03;;;1.33;;
10550;SDS011;5324;50.684;3.862;2023-04-01T13:28:15;1.80;;;1.70;;
10550;SDS011;5324;50.684;3.862;2023-04-01T13:33:42;1.67;;;1.43;;
10550;SDS011;5324;50.684;3.862;2023-04-01T13:38:57;1.80;;;1.40;;
10550;SDS011;5324;50.684;3.862;2023-04-01T13:41:44;1.60;;;1.50;;
10550;SDS011;5324;50.684;3.862;2023-04-01T13:44:22;2.00;;;1.80;;
10550;SDS011;5324;50.684;3.862;2023-04-01T13:49:23;1.77;;;1.63;;
10550;SDS011;5324;50.684;3.862;2023-04-01T14:10:22;1.40;;;1.10;;
10550;SDS011;5324;50.684;3.862;2023-04-01T14:12:56;0.90;;;0.90;;
10550;SDS011;5324;50.684;3.862;2023-04-01T14:15:26;0.80;;;0.80;;
10550;SDS011;5324;50.684;3.862;2023-04-01T14:20:37;1.03;;;0.87;;
10550;SDS011;5324;50.684;3.862;2023-04-01T14:23:29;1.90;;;1.10;;
10550;SDS011;5324;50.684;3.862;2023-04-01T14:26:15;0.80;;;0.80;;
10550;SDS011;5324;50.684;3.862;2023-04-01T14:34:05;1.40;;;1.00;;
10550;SDS011;5324;50.684;3.862;2023-04-01T14:39:15;2.30;;;0.97;;
10550;SDS011;5324;50.684;3.862;2023-04-01T14:44:38;1.17;;;1.17;;
10550;SDS011;5324;50.684;3.862;2023-04-01T14:47:15;1.07;;;1.07;;
10550;SDS011;5324;50.684;3.862;2023-04-01T14:49:46;1.50;;;1.40;;
10550;SDS011;5324;50.684;3.862;2023-04-01T14:52:15;2.40;;;1.40;;
10550;SDS011;5324;50.684;3.862;2023-04-01T14:54:44;3.73;;;1.40;;
10550;SDS011;5324;50.684;3.862;2023-04-01T14:57:11;1.13;;;1.13;;
10550;SDS011;5324;50.684;3.862;2023-04-01T14:59:46;2.50;;;0.93;;
10550;SDS011;5324;50.684;3.862;2023-04-01T15:05:05;1.10;;;1.00;;
10550;SDS011;5324;50.684;3.862;2023-04-01T15:10:12;1.00;;;1.00;;
10550;SDS011;5324;50.684;3.862;2023-04-01T15:12:49;1.23;;;1.10;;
10550;SDS011;5324;50.684;3.862;2023-04-01T15:25:31;2.80;;;1.10;;
10550;SDS011;5324;50.684;3.862;2023-04-01T15:30:52;1.20;;;1.17;;
10550;SDS011;5324;50.684;3.862;2023-04-01T15:33:41;1.07;;;0.97;;
10550;SDS011;5324;50.684;3.862;2023-04-01T15:43:45;1.33;;;1.23;;
10550;SDS011;5324;50.684;3.862;2023-04-01T15:49:10;1.30;;;1.20;;
10550;SDS011;5324;50.684;3.862;2023-04-01T15:56:50;2.00;;;1.50;;
10550;SDS011;5324;50.684;3.862;2023-04-01T16:02:13;0.90;;;0.90;;
10550;SDS011;5324;50.684;3.862;2023-04-01T16:05:27;1.27;;;1.17;;
10550;SDS011;5324;50.684;3.862;2023-04-01T16:15:21;1.20;;;1.10;;
10550;SDS011;5324;50.684;3.862;2023-04-01T16:20:49;0.97;;;0.97;;
10550;SDS011;5324;50.684;3.862;2023-04-01T16:23:20;1.13;;;1.00;;
10550;SDS011;5324;50.684;3.862;2023-04-01T16:26:01;1.17;;;0.83;;
10550;SDS011;5324;50.684;3.862;2023-04-01T16:28:30;1.10;;;1.00;;
10550;SDS011;5324;50.684;3.862;2023-04-01T16:31:00;1.10;;;1.10;;
10550;SDS011;5324;50.684;3.862;2023-04-01T16:38:36;1.77;;;1.30;;
10550;SDS011;5324;50.684;3.862;2023-04-01T16:43:49;1.67;;;1.17;;
10550;SDS011;5324;50.684;3.862;2023-04-01T16:46:30;1.50;;;1.40;;
10550;SDS011;5324;50.684;3.862;2023-04-01T16:54:06;1.20;;;1.10;;
10550;SDS011;5324;50.684;3.862;2023-04-01T16:56:41;3.50;;;1.20;;
10550;SDS011;5324;50.684;3.862;2023-04-01T17:01:54;1.27;;;1.13;;
10550;SDS011;5324;50.684;3.862;2023-04-01T17:07:15;1.47;;;1.37;;
10550;SDS011;5324;50.684;3.862;2023-04-01T17:12:47;1.53;;;1.40;;
10550;SDS011;5324;50.684;3.862;2023-04-01T17:20:32;1.67;;;1.30;;
10550;SDS011;5324;50.684;3.862;2023-04-01T17:31:07;1.40;;;1.30;;
10550;SDS011;5324;50.684;3.862;2023-04-01T17:44:29;1.50;;;1.40;;
10550;SDS011;5324;50.684;3.862;2023-04-01T18:02:25;1.47;;;1.37;;
10550;SDS011;5324;50.684;3.862;2023-04-01T18:10:41;3.33;;;2.20;;
10550;SDS011;5324;50.684;3.862;2023-04-01T18:13:57;4.03;;;2.77;;
10550;SDS011;5324;50.684;3.862;2023-04-01T18:16:22;3.87;;;2.63;;
10550;SDS011;5324;50.684;3.862;2023-04-01T18:21:50;3.13;;;2.20;;
10550;SDS011;5324;50.684;3.862;2023-04-01T18:26:49;2.57;;;2.10;;
10550;SDS011;5324;50.684;3.862;2023-04-01T18:31:51;2.50;;;2.03;;
10550;SDS011;5324;50.684;3.862;2023-04-01T18:37:22;1.97;;;1.87;;
10550;SDS011;5324;50.684;3.862;2023-04-01T18:39:49;1.70;;;1.50;;
10550;SDS011;5324;50.684;3.862;2023-04-01T18:42:31;3.50;;;2.07;;
10550;SDS011;5324;50.684;3.862;2023-04-01T18:45:26;2.77;;;2.07;;
10550;SDS011;5324;50.684;3.862;2023-04-01T18:50:51;2.00;;;1.73;;
10550;SDS011;5324;50.684;3.862;2023-04-01T18:53:34;1.20;;;1.20;;
10550;SDS011;5324;50.684;3.862;2023-04-01T18:56:06;1.97;;;1.77;;
10550;SDS011;5324;50.684;3.862;2023-04-01T18:58:36;2.90;;;1.60;;
10550;SDS011;5324;50.684;3.862;2023-04-01T19:01:14;2.93;;;2.10;;
10550;SDS011;5324;50.684;3.862;2023-04-01T19:03:48;2.83;;;1.83;;
10550;SDS011;5324;50.684;3.862;2023-04-01T19:08:46;2.53;;;2.03;;
10550;SDS011;5324;50.684;3.862;2023-04-01T19:11:23;2.33;;;2.13;;
10550;SDS011;5324;50.684;3.862;2023-04-01T19:17:00;2.80;;;2.60;;
10550;SDS011;5324;50.684;3.862;2023-04-01T19:22:13;3.37;;;1.90;;
10550;SDS011;5324;50.684;3.862;2023-04-01T19:27:35;1.70;;;1.37;;
10550;SDS011;5324;50.684;3.862;2023-04-01T19:36:29;2.37;;;2.17;;
10550;SDS011;5324;50.684;3.862;2023-04-01T19:46:18;4.00;;;2.33;;
10550;SDS011;5324;50.684;3.862;2023-04-01T19:48:55;4.93;;;2.23;;
10550;SDS011;5324;50.684;3.862;2023-04-01T19:51:29;2.00;;;1.90;;
10550;SDS011;5324;50.684;3.862;2023-04-01T19:56:49;3.70;;;2.90;;
10550;SDS011;5324;50.684;3.862;2023-04-01T19:59:27;4.40;;;3.30;;
10550;SDS011;5324;50.684;3.862;2023-04-01T20:04:48;5.23;;;3.87;;
10550;SDS011;5324;50.684;3.862;2023-04-01T20:09:45;7.73;;;4.73;;
10550;SDS011;5324;50.684;3.862;2023-04-01T20:12:19;6.90;;;4.73;;
10550;SDS011;5324;50.684;3.862;2023-04-01T20:14:50;8.97;;;4.67;;
10550;SDS011;5324;50.684;3.862;2023-04-01T20:19:53;7.20;;;4.83;;
10550;SDS011;5324;50.684;3.862;2023-04-01T20:25:02;8.00;;;4.90;;
10550;SDS011;5324;50.684;3.862;2023-04-01T20:27:33;5.80;;;4.40;;
10550;SDS011;5324;50.684;3.862;2023-04-01T20:30:12;8.40;;;5.17;;
10550;SDS011;5324;50.684;3.862;2023-04-01T20:35:18;13.70;;;5.87;;
10550;SDS011;5324;50.684;3.862;2023-04-01T20:37:53;9.70;;;5.13;;
10550;SDS011;5324;50.684;3.862;2023-04-01T20:40:28;5.77;;;4.47;;
10550;SDS011;5324;50.684;3.862;2023-04-01T20:45:57;12.97;;;6.30;;
10550;SDS011;5324;50.684;3.862;2023-04-01T20:51:15;9.67;;;4.93;;
10550;SDS011;5324;50.684;3.862;2023-04-01T20:53:55;7.50;;;5.67;;
10550;SDS011;5324;50.684;3.862;2023-04-01T20:56:28;10.80;;;5.70;;
10550;SDS011;5324;50.684;3.862;2023-04-01T21:01:47;6.37;;;4.67;;
10550;SDS011;5324;50.684;3.862;2023-04-01T21:04:27;13.50;;;6.03;;
10550;SDS011;5324;50.684;3.862;2023-04-01T21:12:05;9.67;;;6.23;;
10550;SDS011;5324;50.684;3.862;2023-04-01T21:20:56;9.97;;;5.17;;
10550;SDS011;5324;50.684;3.862;2023-04-01T21:25:26;8.27;;;4.80;;
10550;SDS011;5324;50.684;3.862;2023-04-01T21:28:17;11.47;;;5.30;;
10550;SDS011;5324;50.684;3.862;2023-04-01T21:31:36;10.17;;;6.03;;
10550;SDS011;5324;50.684;3.862;2023-04-01T21:36:20;14.43;;;7.43;;
10550;SDS011;5324;50.684;3.862;2023-04-01T22:00:13;12.90;;;6.23;;
10550;SDS011;5324;50.684;3.862;2023-04-01T22:05:24;13.00;;;7.67;;
10550;SDS011;5324;50.684;3.862;2023-04-01T22:08:04;14.63;;;8.77;;
10550;SDS011;5324;50.684;3.862;2023-04-01T22:13:23;16.47;;;7.83;;
10550;SDS011;5324;50.684;3.862;2023-04-01T22:16:16;14.23;;;7.20;;
10550;SDS011;5324;50.684;3.862;2023-04-01T22:18:39;12.37;;;5.83;;
10550;SDS011;5324;50.684;3.862;2023-04-01T22:29:03;12.07;;;6.57;;
10550;SDS011;5324;50.684;3.862;2023-04-01T22:31:36;22.33;;;9.80;;
10550;SDS011;5324;50.684;3.862;2023-04-01T22:37:22;17.70;;;9.93;;
10550;SDS011;5324;50.684;3.862;2023-04-01T22:39:23;13.90;;;9.07;;
10550;SDS011;5324;50.684;3.862;2023-04-01T22:41:55;20.50;;;10.17;;
10550;SDS011;5324;50.684;3.862;2023-04-01T22:44:27;18.50;;;8.67;;
10550;SDS011;5324;50.684;3.862;2023-04-01T22:47:00;15.53;;;8.57;;
10550;SDS011;5324;50.684;3.862;2023-04-01T22:49:32;18.50;;;9.73;;
10550;SDS011;5324;50.684;3.862;2023-04-01T22:57:05;23.27;;;9.33;;
10550;SDS011;5324;50.684;3.862;2023-04-01T23:02:21;15.17;;;9.70;;
10550;SDS011;5324;50.684;3.862;2023-04-01T23:04:52;15.20;;;8.27;;
10550;SDS011;5324;50.684;3.862;2023-04-01T23:09:51;17.87;;;9.60;;
10550;SDS011;5324;50.684;3.862;2023-04-01T23:12:19;21.30;;;10.93;;
10550;SDS011;5324;50.684;3.862;2023-04-01T23:17:20;22.00;;;10.77;;
10550;SDS011;5324;50.684;3.862;2023-04-01T23:25:14;15.37;;;9.50;;
10550;SDS011;5324;50.684;3.862;2023-04-01T23:27:44;21.83;;;11.77;;
10550;SDS011;5324;50.684;3.862;2023-04-01T23:32:59;16.70;;;9.10;;
10550;SDS011;5324;50.684;3.862;2023-04-01T23:35:36;24.63;;;12.27;;
10550;SDS011;5324;50.684;3.862;2023-04-01T23:38:11;21.40;;;12.17;;
10550;SDS011;5324;50.684;3.862;2023-04-01T23:40:37;19.37;;;11.50;;
10550;SDS011;5324;50.684;3.862;2023-04-01T23:43:12;21.93;;;12.13;;
10550;SDS011;5324;50.684;3.862;2023-04-01T23:45:40;16.53;;;8.47;;
10550;SDS011;5324;50.684;3.862;2023-04-01T23:48:10;27.90;;;12.30;;
10550;SDS011;5324;50.684;3.862;2023-04-01T23:50:36;29.20;;;13.40;;
10550;SDS011;5324;50.684;3.862;2023-04-01T23:53:08;22.73;;;13.40;;
10550;SDS011;5324;50.684;3.862;2023-04-01T23:55:38;20.20;;;12.30;;
